sensor_id;sensor_type;location;lat;lon;timestamp;temperature;humidity
3055;DHT22;1537;52.018;8.542;2022-10-19T00:00:03;10.70;74.10
3055;DHT22;1537;52.018;8.542;2022-10-19T00:03:37;10.70;74.10
3055;DHT22;1537;52.018;8.542;2022-10-19T00:07:01;10.60;73.50
3055;DHT22;1537;52.018;8.542;2022-10-19T00:10:25;10.50;73.50
3055;DHT22;1537;52.018;8.542;2022-10-19T00:13:49;10.40;73.50
3055;DHT22;1537;52.018;8.542;2022-10-19T00:17:14;10.20;73.60
3055;DHT22;1537;52.018;8.542;2022-10-19T00:20:39;10.20;74.10
3055;DHT22;1537;52.018;8.542;2022-10-19T00:24:04;10.10;74.00
3055;DHT22;1537;52.018;8.542;2022-10-19T00:27:28;10.10;74.20
3055;DHT22;1537;52.018;8.542;2022-10-19T00:30:52;9.90;75.60
3055;DHT22;1537;52.018;8.542;2022-10-19T00:34:16;9.80;75.80
3055;DHT22;1537;52.018;8.542;2022-10-19T00:37:44;9.80;76.20
3055;DHT22;1537;52.018;8.542;2022-10-19T00:41:08;9.80;76.30
3055;DHT22;1537;52.018;8.542;2022-10-19T00:45:05;9.80;76.30
3055;DHT22;1537;52.018;8.542;2022-10-19T00:48:31;9.80;76.30
3055;DHT22;1537;52.018;8.542;2022-10-19T00:52:00;9.80;76.60
3055;DHT22;1537;52.018;8.542;2022-10-19T00:55:25;9.80;76.60
3055;DHT22;1537;52.018;8.542;2022-10-19T00:58:52;9.80;76.50
3055;DHT22;1537;52.018;8.542;2022-10-19T01:02:16;9.90;76.50
3055;DHT22;1537;52.018;8.542;2022-10-19T01:05:40;9.90;76.50
3055;DHT22;1537;52.018;8.542;2022-10-19T01:09:05;9.90;76.20
3055;DHT22;1537;52.018;8.542;2022-10-19T01:16:45;9.80;75.50
3055;DHT22;1537;52.018;8.542;2022-10-19T01:20:31;9.70;75.70
3055;DHT22;1537;52.018;8.542;2022-10-19T01:24:23;9.70;75.90
3055;DHT22;1537;52.018;8.542;2022-10-19T01:27:59;9.60;76.10
3055;DHT22;1537;52.018;8.542;2022-10-19T01:31:33;9.60;76.30
3055;DHT22;1537;52.018;8.542;2022-10-19T01:35:05;9.60;76.40
3055;DHT22;1537;52.018;8.542;2022-10-19T01:38:35;9.50;76.50
3055;DHT22;1537;52.018;8.542;2022-10-19T01:42:04;9.60;76.70
3055;DHT22;1537;52.018;8.542;2022-10-19T01:45:35;9.60;76.80
3055;DHT22;1537;52.018;8.542;2022-10-19T01:49:07;9.60;76.50
3055;DHT22;1537;52.018;8.542;2022-10-19T01:52:33;9.70;76.40
3055;DHT22;1537;52.018;8.542;2022-10-19T01:56:06;9.60;76.50
3055;DHT22;1537;52.018;8.542;2022-10-19T01:59:32;9.50;75.60
3055;DHT22;1537;52.018;8.542;2022-10-19T02:02:59;9.40;75.70
3055;DHT22;1537;52.018;8.542;2022-10-19T02:06:27;9.30;75.90
3055;DHT22;1537;52.018;8.542;2022-10-19T02:09:51;9.20;76.20
3055;DHT22;1537;52.018;8.542;2022-10-19T02:13:15;9.20;76.40
3055;DHT22;1537;52.018;8.542;2022-10-19T02:16:45;9.30;76.30
3055;DHT22;1537;52.018;8.542;2022-10-19T02:20:12;9.30;76.20
3055;DHT22;1537;52.018;8.542;2022-10-19T02:23:38;9.20;76.00
3055;DHT22;1537;52.018;8.542;2022-10-19T02:27:03;9.20;76.70
3055;DHT22;1537;52.018;8.542;2022-10-19T02:30:27;9.20;76.10
3055;DHT22;1537;52.018;8.542;2022-10-19T02:33:51;9.20;76.00
3055;DHT22;1537;52.018;8.542;2022-10-19T02:37:16;9.20;76.20
3055;DHT22;1537;52.018;8.542;2022-10-19T02:41:02;9.00;76.10
3055;DHT22;1537;52.018;8.542;2022-10-19T02:44:30;9.00;76.20
3055;DHT22;1537;52.018;8.542;2022-10-19T02:47:58;9.00;76.00
3055;DHT22;1537;52.018;8.542;2022-10-19T02:51:33;9.00;75.80
3055;DHT22;1537;52.018;8.542;2022-10-19T02:54:57;9.00;75.80
3055;DHT22;1537;52.018;8.542;2022-10-19T02:58:23;9.00;75.80
3055;DHT22;1537;52.018;8.542;2022-10-19T03:01:50;9.00;75.80
3055;DHT22;1537;52.018;8.542;2022-10-19T03:05:14;8.90;75.40
3055;DHT22;1537;52.018;8.542;2022-10-19T03:08:38;8.90;75.60
3055;DHT22;1537;52.018;8.542;2022-10-19T03:12:03;8.90;75.40
3055;DHT22;1537;52.018;8.542;2022-10-19T03:15:28;8.90;75.30
3055;DHT22;1537;52.018;8.542;2022-10-19T03:18:51;8.80;75.30
3055;DHT22;1537;52.018;8.542;2022-10-19T03:22:16;8.80;75.40
3055;DHT22;1537;52.018;8.542;2022-10-19T03:25:40;8.70;75.70
3055;DHT22;1537;52.018;8.542;2022-10-19T03:29:04;8.70;75.90
3055;DHT22;1537;52.018;8.542;2022-10-19T03:32:30;8.80;75.90
3055;DHT22;1537;52.018;8.542;2022-10-19T03:36:11;9.00;75.90
3055;DHT22;1537;52.018;8.542;2022-10-19T03:39:35;9.10;75.80
3055;DHT22;1537;52.018;8.542;2022-10-19T03:43:03;9.20;75.80
3055;DHT22;1537;52.018;8.542;2022-10-19T03:46:27;9.30;75.50
3055;DHT22;1537;52.018;8.542;2022-10-19T03:49:53;9.40;75.50
3055;DHT22;1537;52.018;8.542;2022-10-19T03:53:16;9.40;75.30
3055;DHT22;1537;52.018;8.542;2022-10-19T03:56:41;9.50;75.50
3055;DHT22;1537;52.018;8.542;2022-10-19T04:00:07;9.50;74.90
3055;DHT22;1537;52.018;8.542;2022-10-19T04:03:37;9.40;74.70
3055;DHT22;1537;52.018;8.542;2022-10-19T04:07:03;9.40;74.40
3055;DHT22;1537;52.018;8.542;2022-10-19T04:10:30;9.30;73.90
3055;DHT22;1537;52.018;8.542;2022-10-19T04:13:55;9.20;74.20
3055;DHT22;1537;52.018;8.542;2022-10-19T04:17:19;9.20;74.30
3055;DHT22;1537;52.018;8.542;2022-10-19T04:20:43;9.20;74.50
3055;DHT22;1537;52.018;8.542;2022-10-19T04:24:11;9.20;74.20
3055;DHT22;1537;52.018;8.542;2022-10-19T04:27:35;9.20;74.80
3055;DHT22;1537;52.018;8.542;2022-10-19T04:31:01;9.20;74.30
3055;DHT22;1537;52.018;8.542;2022-10-19T04:34:26;9.20;73.40
3055;DHT22;1537;52.018;8.542;2022-10-19T04:37:50;9.10;74.00
3055;DHT22;1537;52.018;8.542;2022-10-19T04:41:20;9.10;74.20
3055;DHT22;1537;52.018;8.542;2022-10-19T04:44:52;9.20;74.20
3055;DHT22;1537;52.018;8.542;2022-10-19T04:48:16;9.20;74.40
3055;DHT22;1537;52.018;8.542;2022-10-19T04:51:40;9.20;74.10
3055;DHT22;1537;52.018;8.542;2022-10-19T04:55:05;9.20;74.10
3055;DHT22;1537;52.018;8.542;2022-10-19T04:58:31;9.30;74.00
3055;DHT22;1537;52.018;8.542;2022-10-19T05:01:55;9.20;73.60
3055;DHT22;1537;52.018;8.542;2022-10-19T05:05:19;9.10;74.30
3055;DHT22;1537;52.018;8.542;2022-10-19T05:08:43;9.30;74.70
3055;DHT22;1537;52.018;8.542;2022-10-19T05:12:07;9.40;75.00
3055;DHT22;1537;52.018;8.542;2022-10-19T05:15:33;9.60;75.00
3055;DHT22;1537;52.018;8.542;2022-10-19T05:18:59;9.70;74.60
3055;DHT22;1537;52.018;8.542;2022-10-19T05:22:25;9.70;74.20
3055;DHT22;1537;52.018;8.542;2022-10-19T05:25:59;9.80;74.50
3055;DHT22;1537;52.018;8.542;2022-10-19T05:29:23;9.80;74.70
3055;DHT22;1537;52.018;8.542;2022-10-19T05:32:51;10.00;73.90
3055;DHT22;1537;52.018;8.542;2022-10-19T05:36:17;9.90;74.20
3055;DHT22;1537;52.018;8.542;2022-10-19T05:39:43;9.70;73.80
3055;DHT22;1537;52.018;8.542;2022-10-19T05:43:07;9.40;75.40
3055;DHT22;1537;52.018;8.542;2022-10-19T05:46:33;9.30;75.60
3055;DHT22;1537;52.018;8.542;2022-10-19T05:49:58;9.30;75.40
3055;DHT22;1537;52.018;8.542;2022-10-19T05:53:21;9.40;75.60
3055;DHT22;1537;52.018;8.542;2022-10-19T05:56:46;9.40;75.10
3055;DHT22;1537;52.018;8.542;2022-10-19T06:00:12;9.40;75.00
3055;DHT22;1537;52.018;8.542;2022-10-19T06:03:39;9.50;74.70
3055;DHT22;1537;52.018;8.542;2022-10-19T06:07:05;9.40;74.50
3055;DHT22;1537;52.018;8.542;2022-10-19T06:10:29;9.40;74.70
3055;DHT22;1537;52.018;8.542;2022-10-19T06:13:55;9.50;74.80
3055;DHT22;1537;52.018;8.542;2022-10-19T06:17:20;9.40;74.60
3055;DHT22;1537;52.018;8.542;2022-10-19T06:20:43;9.60;74.50
3055;DHT22;1537;52.018;8.542;2022-10-19T06:24:10;9.60;74.10
3055;DHT22;1537;52.018;8.542;2022-10-19T06:27:34;9.70;73.90
3055;DHT22;1537;52.018;8.542;2022-10-19T06:30:59;9.70;73.50
3055;DHT22;1537;52.018;8.542;2022-10-19T06:34:23;9.70;73.80
3055;DHT22;1537;52.018;8.542;2022-10-19T06:37:46;9.90;73.70
3055;DHT22;1537;52.018;8.542;2022-10-19T06:41:12;10.00;72.50
3055;DHT22;1537;52.018;8.542;2022-10-19T06:44:35;10.20;72.00
3055;DHT22;1537;52.018;8.542;2022-10-19T06:47:59;10.10;70.40
3055;DHT22;1537;52.018;8.542;2022-10-19T06:51:29;10.20;70.80
3055;DHT22;1537;52.018;8.542;2022-10-19T06:54:53;10.30;71.00
3055;DHT22;1537;52.018;8.542;2022-10-19T06:58:18;10.40;70.70
3055;DHT22;1537;52.018;8.542;2022-10-19T07:01:42;10.60;70.50
3055;DHT22;1537;52.018;8.542;2022-10-19T07:05:06;10.70;70.50
3055;DHT22;1537;52.018;8.542;2022-10-19T07:08:31;10.80;70.00
3055;DHT22;1537;52.018;8.542;2022-10-19T07:11:55;11.00;70.00
3055;DHT22;1537;52.018;8.542;2022-10-19T07:15:20;11.10;68.90
3055;DHT22;1537;52.018;8.542;2022-10-19T07:18:44;11.20;68.60
3055;DHT22;1537;52.018;8.542;2022-10-19T07:22:07;11.30;68.30
3055;DHT22;1537;52.018;8.542;2022-10-19T07:25:31;11.40;67.50
3055;DHT22;1537;52.018;8.542;2022-10-19T07:28:55;11.60;66.50
3055;DHT22;1537;52.018;8.542;2022-10-19T07:32:21;11.60;66.20
3055;DHT22;1537;52.018;8.542;2022-10-19T07:35:44;11.70;66.50
3055;DHT22;1537;52.018;8.542;2022-10-19T07:39:09;11.90;65.50
3055;DHT22;1537;52.018;8.542;2022-10-19T07:42:33;12.00;64.90
3055;DHT22;1537;52.018;8.542;2022-10-19T07:46:04;12.30;63.70
3055;DHT22;1537;52.018;8.542;2022-10-19T07:49:29;12.40;61.00
3055;DHT22;1537;52.018;8.542;2022-10-19T07:52:53;12.30;60.40
3055;DHT22;1537;52.018;8.542;2022-10-19T07:56:18;12.30;60.00
3055;DHT22;1537;52.018;8.542;2022-10-19T07:59:42;12.60;60.70
3055;DHT22;1537;52.018;8.542;2022-10-19T08:03:06;13.30;59.20
3055;DHT22;1537;52.018;8.542;2022-10-19T08:06:51;13.50;57.50
3055;DHT22;1537;52.018;8.542;2022-10-19T08:10:15;13.50;58.10
3055;DHT22;1537;52.018;8.542;2022-10-19T08:13:39;13.80;57.40
3055;DHT22;1537;52.018;8.542;2022-10-19T08:17:02;13.50;56.70
3055;DHT22;1537;52.018;8.542;2022-10-19T08:20:26;13.60;57.90
3055;DHT22;1537;52.018;8.542;2022-10-19T08:23:51;13.80;57.00
3055;DHT22;1537;52.018;8.542;2022-10-19T08:27:15;14.70;56.30
3055;DHT22;1537;52.018;8.542;2022-10-19T08:30:38;15.20;53.60
3055;DHT22;1537;52.018;8.542;2022-10-19T08:34:02;15.20;53.20
3055;DHT22;1537;52.018;8.542;2022-10-19T08:37:26;14.70;54.40
3055;DHT22;1537;52.018;8.542;2022-10-19T08:41:19;14.90;54.80
3055;DHT22;1537;52.018;8.542;2022-10-19T08:45:02;15.10;54.30
3055;DHT22;1537;52.018;8.542;2022-10-19T08:48:28;15.60;53.20
3055;DHT22;1537;52.018;8.542;2022-10-19T08:51:56;15.40;52.60
3055;DHT22;1537;52.018;8.542;2022-10-19T08:55:28;15.70;51.70
3055;DHT22;1537;52.018;8.542;2022-10-19T08:59:04;16.20;50.60
3055;DHT22;1537;52.018;8.542;2022-10-19T09:02:38;16.00;50.80
3055;DHT22;1537;52.018;8.542;2022-10-19T09:06:11;16.10;50.80
3055;DHT22;1537;52.018;8.542;2022-10-19T09:09:43;16.00;51.30
3055;DHT22;1537;52.018;8.542;2022-10-19T09:13:14;15.90;51.60
3055;DHT22;1537;52.018;8.542;2022-10-19T09:16:41;15.70;51.90
3055;DHT22;1537;52.018;8.542;2022-10-19T09:20:16;15.90;49.60
3055;DHT22;1537;52.018;8.542;2022-10-19T09:23:46;16.60;50.10
3055;DHT22;1537;52.018;8.542;2022-10-19T09:27:17;15.90;47.90
3055;DHT22;1537;52.018;8.542;2022-10-19T09:30:43;15.40;49.30
3055;DHT22;1537;52.018;8.542;2022-10-19T09:34:22;15.50;50.60
3055;DHT22;1537;52.018;8.542;2022-10-19T09:37:48;16.00;50.40
3055;DHT22;1537;52.018;8.542;2022-10-19T09:41:16;15.60;51.60
3055;DHT22;1537;52.018;8.542;2022-10-19T09:44:40;15.30;50.80
3055;DHT22;1537;52.018;8.542;2022-10-19T09:48:13;14.30;48.80
3055;DHT22;1537;52.018;8.542;2022-10-19T09:51:47;14.00;51.70
3055;DHT22;1537;52.018;8.542;2022-10-19T09:55:28;14.20;52.10
3055;DHT22;1537;52.018;8.542;2022-10-19T09:58:57;13.90;49.60
3055;DHT22;1537;52.018;8.542;2022-10-19T10:02:27;13.90;50.00
3055;DHT22;1537;52.018;8.542;2022-10-19T10:05:52;14.00;50.20
3055;DHT22;1537;52.018;8.542;2022-10-19T10:09:21;14.10;49.90
3055;DHT22;1537;52.018;8.542;2022-10-19T10:12:47;14.20;50.30
3055;DHT22;1537;52.018;8.542;2022-10-19T10:16:14;14.30;49.30
3055;DHT22;1537;52.018;8.542;2022-10-19T10:19:49;13.60;50.70
3055;DHT22;1537;52.018;8.542;2022-10-19T10:23:24;13.70;50.50
3055;DHT22;1537;52.018;8.542;2022-10-19T10:26:51;13.60;51.60
3055;DHT22;1537;52.018;8.542;2022-10-19T10:30:16;13.70;50.60
3055;DHT22;1537;52.018;8.542;2022-10-19T10:33:40;13.80;51.60
3055;DHT22;1537;52.018;8.542;2022-10-19T10:37:14;13.80;51.00
3055;DHT22;1537;52.018;8.542;2022-10-19T10:40:48;13.70;52.00
3055;DHT22;1537;52.018;8.542;2022-10-19T10:44:19;13.90;51.80
3055;DHT22;1537;52.018;8.542;2022-10-19T10:47:44;13.60;51.80
3055;DHT22;1537;52.018;8.542;2022-10-19T10:51:21;13.80;51.90
3055;DHT22;1537;52.018;8.542;2022-10-19T10:54:58;14.00;51.70
3055;DHT22;1537;52.018;8.542;2022-10-19T10:58:31;14.10;51.30
3055;DHT22;1537;52.018;8.542;2022-10-19T11:02:25;14.20;51.50
3055;DHT22;1537;52.018;8.542;2022-10-19T11:05:54;13.90;51.90
3055;DHT22;1537;52.018;8.542;2022-10-19T11:09:24;14.00;51.70
3055;DHT22;1537;52.018;8.542;2022-10-19T11:12:57;13.90;51.70
3055;DHT22;1537;52.018;8.542;2022-10-19T11:16:27;14.20;52.00
3055;DHT22;1537;52.018;8.542;2022-10-19T11:19:53;14.40;51.00
3055;DHT22;1537;52.018;8.542;2022-10-19T11:23:22;14.40;50.20
3055;DHT22;1537;52.018;8.542;2022-10-19T11:26:58;14.70;50.00
3055;DHT22;1537;52.018;8.542;2022-10-19T11:30:26;14.60;49.10
3055;DHT22;1537;52.018;8.542;2022-10-19T11:33:54;14.30;50.10
3055;DHT22;1537;52.018;8.542;2022-10-19T11:37:28;14.60;50.10
3055;DHT22;1537;52.018;8.542;2022-10-19T11:41:03;14.40;50.50
3055;DHT22;1537;52.018;8.542;2022-10-19T11:44:52;13.80;50.50
3055;DHT22;1537;52.018;8.542;2022-10-19T11:48:34;13.40;51.70
3055;DHT22;1537;52.018;8.542;2022-10-19T11:52:10;13.50;51.50
3055;DHT22;1537;52.018;8.542;2022-10-19T11:55:42;13.60;51.90
3055;DHT22;1537;52.018;8.542;2022-10-19T11:59:16;13.60;51.60
3055;DHT22;1537;52.018;8.542;2022-10-19T12:03:01;13.80;51.40
3055;DHT22;1537;52.018;8.542;2022-10-19T12:06:37;14.00;51.20
3055;DHT22;1537;52.018;8.542;2022-10-19T12:10:11;14.20;50.30
3055;DHT22;1537;52.018;8.542;2022-10-19T12:13:43;14.30;49.80
3055;DHT22;1537;52.018;8.542;2022-10-19T12:17:14;14.20;49.90
3055;DHT22;1537;52.018;8.542;2022-10-19T12:20:45;14.00;50.30
3055;DHT22;1537;52.018;8.542;2022-10-19T12:24:13;13.80;50.70
3055;DHT22;1537;52.018;8.542;2022-10-19T12:27:39;13.90;50.90
3055;DHT22;1537;52.018;8.542;2022-10-19T12:31:06;13.90;51.00
3055;DHT22;1537;52.018;8.542;2022-10-19T12:34:39;13.70;51.50
3055;DHT22;1537;52.018;8.542;2022-10-19T12:38:13;13.60;51.10
3055;DHT22;1537;52.018;8.542;2022-10-19T12:41:43;13.50;52.10
3055;DHT22;1537;52.018;8.542;2022-10-19T12:45:20;13.60;51.60
3055;DHT22;1537;52.018;8.542;2022-10-19T12:49:33;13.40;52.10
3055;DHT22;1537;52.018;8.542;2022-10-19T12:52:56;13.80;52.30
3055;DHT22;1537;52.018;8.542;2022-10-19T12:56:22;14.10;51.30
3055;DHT22;1537;52.018;8.542;2022-10-19T12:59:57;13.90;51.30
3055;DHT22;1537;52.018;8.542;2022-10-19T13:03:23;14.00;51.10
3055;DHT22;1537;52.018;8.542;2022-10-19T13:07:01;14.00;50.30
3055;DHT22;1537;52.018;8.542;2022-10-19T13:10:26;13.90;50.90
3055;DHT22;1537;52.018;8.542;2022-10-19T13:14:02;14.00;51.10
3055;DHT22;1537;52.018;8.542;2022-10-19T13:17:37;14.10;50.80
3055;DHT22;1537;52.018;8.542;2022-10-19T13:21:06;14.00;51.10
3055;DHT22;1537;52.018;8.542;2022-10-19T13:24:34;14.20;51.00
3055;DHT22;1537;52.018;8.542;2022-10-19T13:32:30;14.10;51.20
3055;DHT22;1537;52.018;8.542;2022-10-19T13:36:05;14.10;51.00
3055;DHT22;1537;52.018;8.542;2022-10-19T13:39:37;13.80;51.80
3055;DHT22;1537;52.018;8.542;2022-10-19T13:43:01;14.00;52.40
3055;DHT22;1537;52.018;8.542;2022-10-19T13:46:42;14.10;51.90
3055;DHT22;1537;52.018;8.542;2022-10-19T13:50:19;14.30;51.70
3055;DHT22;1537;52.018;8.542;2022-10-19T13:53:48;14.30;51.30
3055;DHT22;1537;52.018;8.542;2022-10-19T13:57:30;14.20;51.80
3055;DHT22;1537;52.018;8.542;2022-10-19T14:01:20;14.20;52.10
3055;DHT22;1537;52.018;8.542;2022-10-19T14:04:54;14.20;52.00
3055;DHT22;1537;52.018;8.542;2022-10-19T14:12:21;14.00;51.80
3055;DHT22;1537;52.018;8.542;2022-10-19T14:15:51;13.90;51.60
3055;DHT22;1537;52.018;8.542;2022-10-19T14:19:21;13.50;51.60
3055;DHT22;1537;52.018;8.542;2022-10-19T14:22:48;13.10;52.90
3055;DHT22;1537;52.018;8.542;2022-10-19T14:26:15;13.20;53.20
3055;DHT22;1537;52.018;8.542;2022-10-19T14:29:43;13.20;52.70
3055;DHT22;1537;52.018;8.542;2022-10-19T14:33:10;13.30;52.60
3055;DHT22;1537;52.018;8.542;2022-10-19T14:36:37;13.20;52.80
3055;DHT22;1537;52.018;8.542;2022-10-19T14:40:04;13.30;52.50
3055;DHT22;1537;52.018;8.542;2022-10-19T14:43:31;13.40;52.70
3055;DHT22;1537;52.018;8.542;2022-10-19T14:46:55;13.40;52.40
3055;DHT22;1537;52.018;8.542;2022-10-19T14:50:23;13.30;53.00
3055;DHT22;1537;52.018;8.542;2022-10-19T14:53:50;13.20;53.20
3055;DHT22;1537;52.018;8.542;2022-10-19T14:57:18;13.20;53.30
3055;DHT22;1537;52.018;8.542;2022-10-19T15:00:47;13.10;53.30
3055;DHT22;1537;52.018;8.542;2022-10-19T15:04:17;13.10;53.50
3055;DHT22;1537;52.018;8.542;2022-10-19T15:07:42;13.20;53.60
3055;DHT22;1537;52.018;8.542;2022-10-19T15:11:19;13.10;53.60
3055;DHT22;1537;52.018;8.542;2022-10-19T15:14:53;13.00;53.90
3055;DHT22;1537;52.018;8.542;2022-10-19T15:18:25;13.00;54.20
3055;DHT22;1537;52.018;8.542;2022-10-19T15:22:14;12.80;54.10
3055;DHT22;1537;52.018;8.542;2022-10-19T15:25:40;12.80;54.40
3055;DHT22;1537;52.018;8.542;2022-10-19T15:29:08;12.70;54.70
3055;DHT22;1537;52.018;8.542;2022-10-19T15:32:35;12.60;55.00
3055;DHT22;1537;52.018;8.542;2022-10-19T15:36:05;12.60;55.10
3055;DHT22;1537;52.018;8.542;2022-10-19T15:39:31;12.60;55.30
3055;DHT22;1537;52.018;8.542;2022-10-19T15:43:43;12.50;55.20
3055;DHT22;1537;52.018;8.542;2022-10-19T15:47:21;12.30;55.60
3055;DHT22;1537;52.018;8.542;2022-10-19T15:50:46;12.20;55.70
3055;DHT22;1537;52.018;8.542;2022-10-19T15:54:11;12.20;55.80
3055;DHT22;1537;52.018;8.542;2022-10-19T15:57:37;12.20;56.10
3055;DHT22;1537;52.018;8.542;2022-10-19T16:01:04;12.10;56.20
3055;DHT22;1537;52.018;8.542;2022-10-19T16:04:31;12.00;56.50
3055;DHT22;1537;52.018;8.542;2022-10-19T16:07:55;11.90;56.50
3055;DHT22;1537;52.018;8.542;2022-10-19T16:11:20;11.80;56.80
3055;DHT22;1537;52.018;8.542;2022-10-19T16:14:45;11.70;57.00
3055;DHT22;1537;52.018;8.542;2022-10-19T16:18:10;11.60;57.20
3055;DHT22;1537;52.018;8.542;2022-10-19T16:21:35;11.60;57.30
3055;DHT22;1537;52.018;8.542;2022-10-19T16:24:59;11.50;57.50
3055;DHT22;1537;52.018;8.542;2022-10-19T16:28:22;11.40;58.30
3055;DHT22;1537;52.018;8.542;2022-10-19T16:31:46;11.40;57.90
3055;DHT22;1537;52.018;8.542;2022-10-19T16:35:11;11.40;58.00
3055;DHT22;1537;52.018;8.542;2022-10-19T16:38:35;11.30;58.80
3055;DHT22;1537;52.018;8.542;2022-10-19T16:41:59;11.30;58.30
3055;DHT22;1537;52.018;8.542;2022-10-19T16:45:22;11.30;58.50
3055;DHT22;1537;52.018;8.542;2022-10-19T16:48:46;11.20;58.70
3055;DHT22;1537;52.018;8.542;2022-10-19T16:52:13;11.10;59.10
3055;DHT22;1537;52.018;8.542;2022-10-19T16:55:37;10.90;59.40
3055;DHT22;1537;52.018;8.542;2022-10-19T16:59:03;11.00;59.50
3055;DHT22;1537;52.018;8.542;2022-10-19T17:02:27;11.00;59.50
3055;DHT22;1537;52.018;8.542;2022-10-19T17:05:50;10.90;59.40
3055;DHT22;1537;52.018;8.542;2022-10-19T17:09:15;10.80;60.00
3055;DHT22;1537;52.018;8.542;2022-10-19T17:12:59;10.60;60.80
3055;DHT22;1537;52.018;8.542;2022-10-19T17:16:24;10.50;61.30
3055;DHT22;1537;52.018;8.542;2022-10-19T17:19:48;10.50;61.30
3055;DHT22;1537;52.018;8.542;2022-10-19T17:23:12;10.40;61.70
3055;DHT22;1537;52.018;8.542;2022-10-19T17:26:38;10.40;61.90
3055;DHT22;1537;52.018;8.542;2022-10-19T17:30:03;10.40;61.90
3055;DHT22;1537;52.018;8.542;2022-10-19T17:33:28;10.40;62.00
3055;DHT22;1537;52.018;8.542;2022-10-19T17:36:51;10.30;62.30
3055;DHT22;1537;52.018;8.542;2022-10-19T17:40:15;10.30;62.40
3055;DHT22;1537;52.018;8.542;2022-10-19T17:43:41;10.30;62.50
3055;DHT22;1537;52.018;8.542;2022-10-19T17:47:05;10.10;63.10
3055;DHT22;1537;52.018;8.542;2022-10-19T17:50:29;10.20;63.30
3055;DHT22;1537;52.018;8.542;2022-10-19T17:53:54;10.00;63.30
3055;DHT22;1537;52.018;8.542;2022-10-19T17:57:18;10.10;63.40
3055;DHT22;1537;52.018;8.542;2022-10-19T18:00:43;10.10;63.60
3055;DHT22;1537;52.018;8.542;2022-10-19T18:04:06;9.90;65.40
3055;DHT22;1537;52.018;8.542;2022-10-19T18:07:30;9.90;65.70
3055;DHT22;1537;52.018;8.542;2022-10-19T18:10:58;9.90;65.80
3055;DHT22;1537;52.018;8.542;2022-10-19T18:14:21;9.80;65.90
3055;DHT22;1537;52.018;8.542;2022-10-19T18:17:46;9.80;66.40
3055;DHT22;1537;52.018;8.542;2022-10-19T18:21:12;9.70;66.60
3055;DHT22;1537;52.018;8.542;2022-10-19T18:24:36;9.50;67.50
3055;DHT22;1537;52.018;8.542;2022-10-19T18:28:00;9.50;68.00
3055;DHT22;1537;52.018;8.542;2022-10-19T18:31:26;9.50;68.00
3055;DHT22;1537;52.018;8.542;2022-10-19T18:34:52;9.50;68.00
3055;DHT22;1537;52.018;8.542;2022-10-19T18:38:17;9.60;67.90
3055;DHT22;1537;52.018;8.542;2022-10-19T18:41:41;9.30;68.50
3055;DHT22;1537;52.018;8.542;2022-10-19T18:45:09;9.20;69.50
3055;DHT22;1537;52.018;8.542;2022-10-19T18:48:36;9.20;69.60
3055;DHT22;1537;52.018;8.542;2022-10-19T18:52:09;9.20;69.70
3055;DHT22;1537;52.018;8.542;2022-10-19T18:55:33;9.10;69.90
3055;DHT22;1537;52.018;8.542;2022-10-19T18:58:59;9.20;69.70
3055;DHT22;1537;52.018;8.542;2022-10-19T19:02:23;9.10;69.60
3055;DHT22;1537;52.018;8.542;2022-10-19T19:05:58;9.10;69.60
3055;DHT22;1537;52.018;8.542;2022-10-19T19:09:23;9.10;69.80
3055;DHT22;1537;52.018;8.542;2022-10-19T19:12:48;9.00;70.50
3055;DHT22;1537;52.018;8.542;2022-10-19T19:16:12;9.00;70.20
3055;DHT22;1537;52.018;8.542;2022-10-19T19:19:36;9.00;69.90
3055;DHT22;1537;52.018;8.542;2022-10-19T19:22:59;9.00;70.00
3055;DHT22;1537;52.018;8.542;2022-10-19T19:26:28;9.00;70.00
3055;DHT22;1537;52.018;8.542;2022-10-19T19:29:54;9.00;70.00
3055;DHT22;1537;52.018;8.542;2022-10-19T19:33:17;9.00;70.00
3055;DHT22;1537;52.018;8.542;2022-10-19T19:36:41;9.00;69.80
3055;DHT22;1537;52.018;8.542;2022-10-19T19:40:10;9.00;69.50
3055;DHT22;1537;52.018;8.542;2022-10-19T19:43:35;9.00;69.60
3055;DHT22;1537;52.018;8.542;2022-10-19T19:47:00;9.00;69.90
3055;DHT22;1537;52.018;8.542;2022-10-19T19:50:24;8.90;70.10
3055;DHT22;1537;52.018;8.542;2022-10-19T19:53:47;8.80;70.10
3055;DHT22;1537;52.018;8.542;2022-10-19T19:57:11;8.80;70.40
3055;DHT22;1537;52.018;8.542;2022-10-19T20:00:37;8.70;70.40
3055;DHT22;1537;52.018;8.542;2022-10-19T20:04:05;8.60;70.90
3055;DHT22;1537;52.018;8.542;2022-10-19T20:07:29;8.60;71.50
3055;DHT22;1537;52.018;8.542;2022-10-19T20:10:53;8.60;70.70
3055;DHT22;1537;52.018;8.542;2022-10-19T20:14:17;8.60;71.00
3055;DHT22;1537;52.018;8.542;2022-10-19T20:17:42;8.50;71.20
3055;DHT22;1537;52.018;8.542;2022-10-19T20:21:06;8.50;71.20
3055;DHT22;1537;52.018;8.542;2022-10-19T20:24:30;8.50;71.20
3055;DHT22;1537;52.018;8.542;2022-10-19T20:27:58;8.50;71.00
3055;DHT22;1537;52.018;8.542;2022-10-19T20:31:22;8.50;70.90
3055;DHT22;1537;52.018;8.542;2022-10-19T20:34:47;8.50;70.50
3055;DHT22;1537;52.018;8.542;2022-10-19T20:38:10;8.50;70.60
3055;DHT22;1537;52.018;8.542;2022-10-19T20:41:35;8.50;70.40
3055;DHT22;1537;52.018;8.542;2022-10-19T20:44:58;8.40;70.50
3055;DHT22;1537;52.018;8.542;2022-10-19T20:48:22;8.40;70.60
3055;DHT22;1537;52.018;8.542;2022-10-19T20:51:47;8.40;70.20
3055;DHT22;1537;52.018;8.542;2022-10-19T20:55:11;8.40;70.20
3055;DHT22;1537;52.018;8.542;2022-10-19T20:58:35;8.40;70.10
3055;DHT22;1537;52.018;8.542;2022-10-19T21:02:01;8.30;70.10
3055;DHT22;1537;52.018;8.542;2022-10-19T21:05:25;8.30;70.30
3055;DHT22;1537;52.018;8.542;2022-10-19T21:08:51;8.20;70.40
3055;DHT22;1537;52.018;8.542;2022-10-19T21:12:15;8.20;70.60
3055;DHT22;1537;52.018;8.542;2022-10-19T21:15:38;8.20;70.60
3055;DHT22;1537;52.018;8.542;2022-10-19T21:19:03;8.20;70.60
3055;DHT22;1537;52.018;8.542;2022-10-19T21:22:27;8.10;70.80
3055;DHT22;1537;52.018;8.542;2022-10-19T21:25:54;8.10;70.70
3055;DHT22;1537;52.018;8.542;2022-10-19T21:29:19;8.10;70.90
3055;DHT22;1537;52.018;8.542;2022-10-19T21:32:44;8.10;70.80
3055;DHT22;1537;52.018;8.542;2022-10-19T21:36:09;8.10;70.80
3055;DHT22;1537;52.018;8.542;2022-10-19T21:39:33;8.00;70.70
3055;DHT22;1537;52.018;8.542;2022-10-19T21:42:59;8.10;70.60
3055;DHT22;1537;52.018;8.542;2022-10-19T21:46:23;8.10;71.10
3055;DHT22;1537;52.018;8.542;2022-10-19T21:49:50;8.10;70.30
3055;DHT22;1537;52.018;8.542;2022-10-19T21:53:20;8.00;70.70
3055;DHT22;1537;52.018;8.542;2022-10-19T21:56:45;7.90;71.00
3055;DHT22;1537;52.018;8.542;2022-10-19T22:00:12;7.90;71.10
3055;DHT22;1537;52.018;8.542;2022-10-19T22:03:41;7.80;71.30
3055;DHT22;1537;52.018;8.542;2022-10-19T22:07:05;7.70;71.40
3055;DHT22;1537;52.018;8.542;2022-10-19T22:10:29;7.80;71.50
3055;DHT22;1537;52.018;8.542;2022-10-19T22:13:53;7.80;71.50
3055;DHT22;1537;52.018;8.542;2022-10-19T22:17:19;7.70;71.50
3055;DHT22;1537;52.018;8.542;2022-10-19T22:20:44;7.60;71.60
3055;DHT22;1537;52.018;8.542;2022-10-19T22:24:12;7.60;71.70
3055;DHT22;1537;52.018;8.542;2022-10-19T22:27:37;7.60;71.70
3055;DHT22;1537;52.018;8.542;2022-10-19T22:31:01;7.50;72.10
3055;DHT22;1537;52.018;8.542;2022-10-19T22:34:31;7.50;72.10
3055;DHT22;1537;52.018;8.542;2022-10-19T22:37:55;7.50;72.10
3055;DHT22;1537;52.018;8.542;2022-10-19T22:41:19;7.50;72.10
3055;DHT22;1537;52.018;8.542;2022-10-19T22:44:43;7.40;72.50
3055;DHT22;1537;52.018;8.542;2022-10-19T22:48:07;7.30;72.50
3055;DHT22;1537;52.018;8.542;2022-10-19T22:51:32;7.40;72.50
3055;DHT22;1537;52.018;8.542;2022-10-19T22:54:56;7.40;72.30
3055;DHT22;1537;52.018;8.542;2022-10-19T22:58:21;7.40;72.10